sensor_id;sensor_type;location;lat;lon;timestamp;temperature;humidity
45945;DHT22;31655;48.972;10.686;2023-12-22T00:01:43;2.80;99.90
45945;DHT22;31655;48.972;10.686;2023-12-22T00:04:12;2.80;99.90
45945;DHT22;31655;48.972;10.686;2023-12-22T00:06:40;2.80;99.90
45945;DHT22;31655;48.972;10.686;2023-12-22T00:09:06;2.80;99.90
45945;DHT22;31655;48.972;10.686;2023-12-22T00:11:33;2.70;99.90
45945;DHT22;31655;48.972;10.686;2023-12-22T00:14:02;2.70;99.90
45945;DHT22;31655;48.972;10.686;2023-12-22T00:16:27;2.70;99.90
45945;DHT22;31655;48.972;10.686;2023-12-22T00:18:53;2.60;99.90
45945;DHT22;31655;48.972;10.686;2023-12-22T00:21:19;2.60;99.90
45945;DHT22;31655;48.972;10.686;2023-12-22T00:23:47;2.60;99.90
45945;DHT22;31655;48.972;10.686;2023-12-22T00:26:13;2.50;99.90
45945;DHT22;31655;48.972;10.686;2023-12-22T00:28:41;2.50;99.90
45945;DHT22;31655;48.972;10.686;2023-12-22T00:31:08;4.10;99.90
45945;DHT22;31655;48.972;10.686;2023-12-22T00:33:34;2.40;99.90
45945;DHT22;31655;48.972;10.686;2023-12-22T00:36:00;2.40;99.90
45945;DHT22;31655;48.972;10.686;2023-12-22T00:38:28;2.40;99.90
45945;DHT22;31655;48.972;10.686;2023-12-22T00:40:54;2.40;99.90
45945;DHT22;31655;48.972;10.686;2023-12-22T00:43:21;2.20;99.90
45945;DHT22;31655;48.972;10.686;2023-12-22T00:45:46;2.30;99.90
45945;DHT22;31655;48.972;10.686;2023-12-22T00:48:12;2.30;99.90
45945;DHT22;31655;48.972;10.686;2023-12-22T00:50:40;2.30;99.90
45945;DHT22;31655;48.972;10.686;2023-12-22T00:53:06;2.90;99.90
45945;DHT22;31655;48.972;10.686;2023-12-22T00:55:31;2.20;99.90
45945;DHT22;31655;48.972;10.686;2023-12-22T00:57:58;2.20;99.90
45945;DHT22;31655;48.972;10.686;2023-12-22T01:00:25;2.10;99.90
45945;DHT22;31655;48.972;10.686;2023-12-22T01:05:17;2.10;99.90
45945;DHT22;31655;48.972;10.686;2023-12-22T01:07:44;2.00;99.90
45945;DHT22;31655;48.972;10.686;2023-12-22T01:10:10;2.00;99.90
45945;DHT22;31655;48.972;10.686;2023-12-22T01:12:36;2.10;99.90
45945;DHT22;31655;48.972;10.686;2023-12-22T01:15:01;2.10;99.90
45945;DHT22;31655;48.972;10.686;2023-12-22T01:17:27;2.10;99.90
45945;DHT22;31655;48.972;10.686;2023-12-22T01:19:53;2.10;99.90
45945;DHT22;31655;48.972;10.686;2023-12-22T01:22:18;2.10;99.90
45945;DHT22;31655;48.972;10.686;2023-12-22T01:24:44;1.90;99.90
45945;DHT22;31655;48.972;10.686;2023-12-22T01:27:11;2.70;99.90
45945;DHT22;31655;48.972;10.686;2023-12-22T01:29:36;2.00;99.90
45945;DHT22;31655;48.972;10.686;2023-12-22T01:32:02;2.00;99.90
45945;DHT22;31655;48.972;10.686;2023-12-22T01:34:29;2.00;99.90
45945;DHT22;31655;48.972;10.686;2023-12-22T01:36:55;2.10;99.90
45945;DHT22;31655;48.972;10.686;2023-12-22T01:39:21;2.10;99.90
45945;DHT22;31655;48.972;10.686;2023-12-22T01:41:46;5.20;99.90
45945;DHT22;31655;48.972;10.686;2023-12-22T01:44:12;1.90;99.90
45945;DHT22;31655;48.972;10.686;2023-12-22T01:47:03;2.00;99.90
45945;DHT22;31655;48.972;10.686;2023-12-22T01:49:30;1.90;99.90
45945;DHT22;31655;48.972;10.686;2023-12-22T01:51:56;1.60;99.90
45945;DHT22;31655;48.972;10.686;2023-12-22T01:54:22;1.80;99.90
45945;DHT22;31655;48.972;10.686;2023-12-22T01:56:47;1.70;99.90
45945;DHT22;31655;48.972;10.686;2023-12-22T01:59:17;1.60;99.90
45945;DHT22;31655;48.972;10.686;2023-12-22T02:01:44;1.60;99.90
45945;DHT22;31655;48.972;10.686;2023-12-22T02:04:12;1.60;99.90
45945;DHT22;31655;48.972;10.686;2023-12-22T02:06:39;1.50;99.90
45945;DHT22;31655;48.972;10.686;2023-12-22T02:09:06;1.50;99.90
45945;DHT22;31655;48.972;10.686;2023-12-22T02:11:32;1.40;99.90
45945;DHT22;31655;48.972;10.686;2023-12-22T02:13:57;1.40;99.90
45945;DHT22;31655;48.972;10.686;2023-12-22T02:22:07;1.40;99.90
45945;DHT22;31655;48.972;10.686;2023-12-22T02:24:33;1.40;99.90
45945;DHT22;31655;48.972;10.686;2023-12-22T02:30:12;1.50;99.90
45945;DHT22;31655;48.972;10.686;2023-12-22T02:32:44;1.50;99.90
45945;DHT22;31655;48.972;10.686;2023-12-22T02:35:16;1.50;99.90
45945;DHT22;31655;48.972;10.686;2023-12-22T02:37:44;1.60;99.90
45945;DHT22;31655;48.972;10.686;2023-12-22T02:40:11;2.50;99.90
45945;DHT22;31655;48.972;10.686;2023-12-22T02:42:38;1.60;99.90
45945;DHT22;31655;48.972;10.686;2023-12-22T02:45:05;1.60;99.90
45945;DHT22;31655;48.972;10.686;2023-12-22T02:47:31;1.60;99.90
45945;DHT22;31655;48.972;10.686;2023-12-22T02:49:58;1.70;99.90
45945;DHT22;31655;48.972;10.686;2023-12-22T02:52:24;1.70;99.90
45945;DHT22;31655;48.972;10.686;2023-12-22T02:54:50;1.80;99.90
45945;DHT22;31655;48.972;10.686;2023-12-22T02:57:16;1.80;99.90
45945;DHT22;31655;48.972;10.686;2023-12-22T02:59:41;1.80;99.90
45945;DHT22;31655;48.972;10.686;2023-12-22T03:02:07;1.80;99.90
45945;DHT22;31655;48.972;10.686;2023-12-22T03:04:32;1.90;99.90
45945;DHT22;31655;48.972;10.686;2023-12-22T03:06:58;2.00;99.90
45945;DHT22;31655;48.972;10.686;2023-12-22T03:09:23;2.00;99.90
45945;DHT22;31655;48.972;10.686;2023-12-22T03:11:49;2.00;99.90
45945;DHT22;31655;48.972;10.686;2023-12-22T03:14:17;2.00;99.90
45945;DHT22;31655;48.972;10.686;2023-12-22T03:16:42;2.10;99.90
45945;DHT22;31655;48.972;10.686;2023-12-22T03:19:08;2.20;99.90
45945;DHT22;31655;48.972;10.686;2023-12-22T03:21:33;2.20;99.90
45945;DHT22;31655;48.972;10.686;2023-12-22T03:24:00;2.30;99.90
45945;DHT22;31655;48.972;10.686;2023-12-22T03:26:29;2.40;99.90
45945;DHT22;31655;48.972;10.686;2023-12-22T03:28:54;2.40;99.90
45945;DHT22;31655;48.972;10.686;2023-12-22T03:31:20;2.60;99.90
45945;DHT22;31655;48.972;10.686;2023-12-22T03:33:46;3.00;99.90
45945;DHT22;31655;48.972;10.686;2023-12-22T03:36:13;2.50;99.90
45945;DHT22;31655;48.972;10.686;2023-12-22T03:38:42;2.60;99.90
45945;DHT22;31655;48.972;10.686;2023-12-22T03:41:08;2.60;99.90
45945;DHT22;31655;48.972;10.686;2023-12-22T03:43:36;2.70;99.90
45945;DHT22;31655;48.972;10.686;2023-12-22T03:46:07;2.70;99.90
45945;DHT22;31655;48.972;10.686;2023-12-22T03:48:33;2.80;99.90
45945;DHT22;31655;48.972;10.686;2023-12-22T03:55:51;2.30;99.90
45945;DHT22;31655;48.972;10.686;2023-12-22T03:58:16;1.80;99.90
45945;DHT22;31655;48.972;10.686;2023-12-22T04:00:42;2.00;99.90
45945;DHT22;31655;48.972;10.686;2023-12-22T04:05:33;2.10;99.90
45945;DHT22;31655;48.972;10.686;2023-12-22T04:07:59;1.90;99.90
45945;DHT22;31655;48.972;10.686;2023-12-22T04:10:27;1.70;99.90
45945;DHT22;31655;48.972;10.686;2023-12-22T04:12:53;2.00;99.90
45945;DHT22;31655;48.972;10.686;2023-12-22T04:15:18;1.90;99.90
45945;DHT22;31655;48.972;10.686;2023-12-22T04:17:47;4.20;99.90
45945;DHT22;31655;48.972;10.686;2023-12-22T04:20:12;2.10;99.90
45945;DHT22;31655;48.972;10.686;2023-12-22T04:22:39;1.90;99.90
45945;DHT22;31655;48.972;10.686;2023-12-22T04:25:05;2.00;99.90
45945;DHT22;31655;48.972;10.686;2023-12-22T04:27:31;2.10;99.90
45945;DHT22;31655;48.972;10.686;2023-12-22T04:29:59;2.10;99.90
45945;DHT22;31655;48.972;10.686;2023-12-22T04:32:25;2.20;99.90
45945;DHT22;31655;48.972;10.686;2023-12-22T04:34:54;2.20;99.90
45945;DHT22;31655;48.972;10.686;2023-12-22T04:37:19;2.20;99.90
45945;DHT22;31655;48.972;10.686;2023-12-22T04:39:45;2.20;99.90
45945;DHT22;31655;48.972;10.686;2023-12-22T04:42:10;2.20;99.90
45945;DHT22;31655;48.972;10.686;2023-12-22T04:44:36;2.20;99.90
45945;DHT22;31655;48.972;10.686;2023-12-22T04:47:04;2.20;99.90
45945;DHT22;31655;48.972;10.686;2023-12-22T04:49:30;2.20;99.90
45945;DHT22;31655;48.972;10.686;2023-12-22T04:51:56;2.20;99.90
45945;DHT22;31655;48.972;10.686;2023-12-22T04:54:21;2.20;99.90
45945;DHT22;31655;48.972;10.686;2023-12-22T04:56:47;2.20;99.90
45945;DHT22;31655;48.972;10.686;2023-12-22T04:59:12;2.20;99.90
45945;DHT22;31655;48.972;10.686;2023-12-22T05:01:38;2.20;99.90
45945;DHT22;31655;48.972;10.686;2023-12-22T05:04:03;2.20;99.90
45945;DHT22;31655;48.972;10.686;2023-12-22T05:06:29;2.20;99.90
45945;DHT22;31655;48.972;10.686;2023-12-22T05:08:56;2.20;99.90
45945;DHT22;31655;48.972;10.686;2023-12-22T05:11:22;2.30;99.90
45945;DHT22;31655;48.972;10.686;2023-12-22T05:13:49;2.30;99.90
45945;DHT22;31655;48.972;10.686;2023-12-22T05:16:15;2.40;99.90
45945;DHT22;31655;48.972;10.686;2023-12-22T05:18:41;2.20;99.90
45945;DHT22;31655;48.972;10.686;2023-12-22T05:21:07;2.30;99.90
45945;DHT22;31655;48.972;10.686;2023-12-22T05:23:32;2.40;99.90
45945;DHT22;31655;48.972;10.686;2023-12-22T05:25:58;2.30;99.90
45945;DHT22;31655;48.972;10.686;2023-12-22T05:28:23;2.30;99.90
45945;DHT22;31655;48.972;10.686;2023-12-22T05:35:41;2.50;99.90
45945;DHT22;31655;48.972;10.686;2023-12-22T05:38:06;2.50;99.90
45945;DHT22;31655;48.972;10.686;2023-12-22T05:40:32;2.50;99.90
45945;DHT22;31655;48.972;10.686;2023-12-22T05:42:58;5.50;99.90
45945;DHT22;31655;48.972;10.686;2023-12-22T05:45:24;4.40;99.90
45945;DHT22;31655;48.972;10.686;2023-12-22T05:50:16;2.60;99.90
45945;DHT22;31655;48.972;10.686;2023-12-22T05:52:42;2.50;99.90
45945;DHT22;31655;48.972;10.686;2023-12-22T05:55:09;2.60;99.90
45945;DHT22;31655;48.972;10.686;2023-12-22T05:57:34;5.80;99.90
45945;DHT22;31655;48.972;10.686;2023-12-22T06:00:00;2.40;99.90
45945;DHT22;31655;48.972;10.686;2023-12-22T06:02:26;2.50;99.90
45945;DHT22;31655;48.972;10.686;2023-12-22T06:04:51;2.30;99.90
45945;DHT22;31655;48.972;10.686;2023-12-22T06:07:18;2.40;99.90
45945;DHT22;31655;48.972;10.686;2023-12-22T06:09:46;2.40;99.90
45945;DHT22;31655;48.972;10.686;2023-12-22T06:12:11;2.30;99.90
45945;DHT22;31655;48.972;10.686;2023-12-22T06:17:03;2.50;99.90
45945;DHT22;31655;48.972;10.686;2023-12-22T06:19:28;2.50;99.90
45945;DHT22;31655;48.972;10.686;2023-12-22T06:21:56;2.40;99.90
45945;DHT22;31655;48.972;10.686;2023-12-22T06:24:23;2.40;99.90
45945;DHT22;31655;48.972;10.686;2023-12-22T06:26:48;2.50;99.90
45945;DHT22;31655;48.972;10.686;2023-12-22T06:29:14;4.00;99.90
45945;DHT22;31655;48.972;10.686;2023-12-22T06:31:39;4.40;99.90
45945;DHT22;31655;48.972;10.686;2023-12-22T06:34:05;2.50;99.90
45945;DHT22;31655;48.972;10.686;2023-12-22T06:36:33;2.50;99.90
45945;DHT22;31655;48.972;10.686;2023-12-22T06:39:00;2.50;99.90
45945;DHT22;31655;48.972;10.686;2023-12-22T06:41:28;2.60;99.90
45945;DHT22;31655;48.972;10.686;2023-12-22T06:43:54;2.70;99.90
45945;DHT22;31655;48.972;10.686;2023-12-22T06:46:22;2.70;99.90
45945;DHT22;31655;48.972;10.686;2023-12-22T06:48:48;2.80;99.90
45945;DHT22;31655;48.972;10.686;2023-12-22T06:51:18;2.80;99.90
45945;DHT22;31655;48.972;10.686;2023-12-22T06:53:49;2.70;99.90
45945;DHT22;31655;48.972;10.686;2023-12-22T06:58:42;2.90;99.90
45945;DHT22;31655;48.972;10.686;2023-12-22T07:01:08;3.00;99.90
45945;DHT22;31655;48.972;10.686;2023-12-22T07:03:34;2.90;99.90
45945;DHT22;31655;48.972;10.686;2023-12-22T07:05:59;2.90;99.90
45945;DHT22;31655;48.972;10.686;2023-12-22T07:08:25;2.90;99.90
45945;DHT22;31655;48.972;10.686;2023-12-22T07:13:18;2.70;99.90
45945;DHT22;31655;48.972;10.686;2023-12-22T07:15:43;5.00;99.90
45945;DHT22;31655;48.972;10.686;2023-12-22T07:18:09;2.60;99.90
45945;DHT22;31655;48.972;10.686;2023-12-22T07:20:34;2.70;99.90
45945;DHT22;31655;48.972;10.686;2023-12-22T07:23:00;2.50;99.90
45945;DHT22;31655;48.972;10.686;2023-12-22T07:25:25;2.40;99.90
45945;DHT22;31655;48.972;10.686;2023-12-22T07:27:51;2.30;99.90
45945;DHT22;31655;48.972;10.686;2023-12-22T07:30:17;2.30;99.90
45945;DHT22;31655;48.972;10.686;2023-12-22T07:32:44;2.30;99.90
45945;DHT22;31655;48.972;10.686;2023-12-22T07:35:10;2.40;99.90
45945;DHT22;31655;48.972;10.686;2023-12-22T07:37:36;2.30;99.90
45945;DHT22;31655;48.972;10.686;2023-12-22T07:40:01;2.40;99.90
45945;DHT22;31655;48.972;10.686;2023-12-22T07:42:28;2.50;99.90
45945;DHT22;31655;48.972;10.686;2023-12-22T07:44:53;3.30;99.90
45945;DHT22;31655;48.972;10.686;2023-12-22T07:47:19;2.70;99.90
45945;DHT22;31655;48.972;10.686;2023-12-22T07:49:45;2.80;99.90
45945;DHT22;31655;48.972;10.686;2023-12-22T07:52:12;2.90;99.90
45945;DHT22;31655;48.972;10.686;2023-12-22T07:54:37;3.00;99.90
45945;DHT22;31655;48.972;10.686;2023-12-22T07:57:03;3.10;99.90
45945;DHT22;31655;48.972;10.686;2023-12-22T07:59:29;3.10;99.90
45945;DHT22;31655;48.972;10.686;2023-12-22T08:01:54;3.10;99.90
45945;DHT22;31655;48.972;10.686;2023-12-22T08:04:20;3.10;99.90
45945;DHT22;31655;48.972;10.686;2023-12-22T08:06:45;3.10;99.90
45945;DHT22;31655;48.972;10.686;2023-12-22T08:09:11;3.20;99.90
45945;DHT22;31655;48.972;10.686;2023-12-22T08:11:37;3.20;99.90
45945;DHT22;31655;48.972;10.686;2023-12-22T08:14:03;4.50;99.90
45945;DHT22;31655;48.972;10.686;2023-12-22T08:16:29;3.20;99.90
45945;DHT22;31655;48.972;10.686;2023-12-22T08:21:21;3.30;99.90
45945;DHT22;31655;48.972;10.686;2023-12-22T08:23:47;3.20;99.90
45945;DHT22;31655;48.972;10.686;2023-12-22T08:26:12;3.20;99.90
45945;DHT22;31655;48.972;10.686;2023-12-22T08:28:39;3.20;99.90
45945;DHT22;31655;48.972;10.686;2023-12-22T08:31:05;3.20;99.90
45945;DHT22;31655;48.972;10.686;2023-12-22T08:33:31;3.20;99.90
45945;DHT22;31655;48.972;10.686;2023-12-22T08:35:57;3.20;99.90
45945;DHT22;31655;48.972;10.686;2023-12-22T08:38:22;3.20;99.90
45945;DHT22;31655;48.972;10.686;2023-12-22T08:40:48;3.30;99.90
45945;DHT22;31655;48.972;10.686;2023-12-22T08:43:14;3.30;99.90
45945;DHT22;31655;48.972;10.686;2023-12-22T08:45:40;3.40;99.90
45945;DHT22;31655;48.972;10.686;2023-12-22T08:48:06;3.50;99.90
45945;DHT22;31655;48.972;10.686;2023-12-22T08:50:34;3.50;99.90
45945;DHT22;31655;48.972;10.686;2023-12-22T08:52:59;3.60;99.90
45945;DHT22;31655;48.972;10.686;2023-12-22T08:55:25;3.70;99.90
45945;DHT22;31655;48.972;10.686;2023-12-22T08:57:51;3.70;99.90
45945;DHT22;31655;48.972;10.686;2023-12-22T09:00:16;3.70;99.90
45945;DHT22;31655;48.972;10.686;2023-12-22T09:02:42;3.80;99.90
45945;DHT22;31655;48.972;10.686;2023-12-22T09:05:08;3.80;99.90
45945;DHT22;31655;48.972;10.686;2023-12-22T09:07:33;4.00;99.90
45945;DHT22;31655;48.972;10.686;2023-12-22T09:09:59;4.10;99.90
45945;DHT22;31655;48.972;10.686;2023-12-22T09:12:24;4.10;99.90
45945;DHT22;31655;48.972;10.686;2023-12-22T09:14:50;4.20;99.90
45945;DHT22;31655;48.972;10.686;2023-12-22T09:17:16;4.30;99.90
45945;DHT22;31655;48.972;10.686;2023-12-22T09:19:41;4.30;99.90
45945;DHT22;31655;48.972;10.686;2023-12-22T09:22:08;4.40;99.90
45945;DHT22;31655;48.972;10.686;2023-12-22T09:24:34;4.40;99.90
45945;DHT22;31655;48.972;10.686;2023-12-22T09:26:59;4.50;99.90
45945;DHT22;31655;48.972;10.686;2023-12-22T09:29:30;4.50;99.90
45945;DHT22;31655;48.972;10.686;2023-12-22T09:31:57;4.60;99.90
45945;DHT22;31655;48.972;10.686;2023-12-22T09:34:22;4.60;99.90
45945;DHT22;31655;48.972;10.686;2023-12-22T09:36:48;4.60;99.90
45945;DHT22;31655;48.972;10.686;2023-12-22T09:39:14;4.60;99.90
45945;DHT22;31655;48.972;10.686;2023-12-22T09:41:48;4.70;99.90
45945;DHT22;31655;48.972;10.686;2023-12-22T09:44:17;4.80;99.90
45945;DHT22;31655;48.972;10.686;2023-12-22T09:46:44;4.80;99.90
45945;DHT22;31655;48.972;10.686;2023-12-22T09:49:10;4.80;99.90
45945;DHT22;31655;48.972;10.686;2023-12-22T09:51:37;4.90;99.90
45945;DHT22;31655;48.972;10.686;2023-12-22T09:54:04;4.90;99.90
45945;DHT22;31655;48.972;10.686;2023-12-22T09:56:31;5.00;99.90
45945;DHT22;31655;48.972;10.686;2023-12-22T09:58:56;5.10;99.90
45945;DHT22;31655;48.972;10.686;2023-12-22T10:01:23;5.10;99.90
45945;DHT22;31655;48.972;10.686;2023-12-22T10:03:49;5.10;99.90
45945;DHT22;31655;48.972;10.686;2023-12-22T10:06:15;5.20;99.90
45945;DHT22;31655;48.972;10.686;2023-12-22T10:08:43;5.20;99.90
45945;DHT22;31655;48.972;10.686;2023-12-22T10:11:08;5.20;99.90
45945;DHT22;31655;48.972;10.686;2023-12-22T10:13:36;5.30;99.90
45945;DHT22;31655;48.972;10.686;2023-12-22T10:16:04;5.40;99.90
45945;DHT22;31655;48.972;10.686;2023-12-22T10:18:34;5.40;99.90
45945;DHT22;31655;48.972;10.686;2023-12-22T10:21:00;5.30;99.90
45945;DHT22;31655;48.972;10.686;2023-12-22T10:23:26;5.20;99.90
45945;DHT22;31655;48.972;10.686;2023-12-22T10:25:51;5.00;99.90
45945;DHT22;31655;48.972;10.686;2023-12-22T10:28:17;5.00;99.90
45945;DHT22;31655;48.972;10.686;2023-12-22T10:30:48;4.80;99.90
45945;DHT22;31655;48.972;10.686;2023-12-22T10:33:15;4.70;99.90
45945;DHT22;31655;48.972;10.686;2023-12-22T10:35:41;6.40;99.90
45945;DHT22;31655;48.972;10.686;2023-12-22T10:38:08;4.60;99.90
45945;DHT22;31655;48.972;10.686;2023-12-22T10:40:33;4.50;99.90
45945;DHT22;31655;48.972;10.686;2023-12-22T10:43:02;4.50;99.90
45945;DHT22;31655;48.972;10.686;2023-12-22T10:45:28;4.60;99.90
45945;DHT22;31655;48.972;10.686;2023-12-22T10:47:56;4.50;99.90
45945;DHT22;31655;48.972;10.686;2023-12-22T10:50:22;4.50;99.90
45945;DHT22;31655;48.972;10.686;2023-12-22T10:52:50;4.50;99.90
45945;DHT22;31655;48.972;10.686;2023-12-22T10:55:16;4.50;99.90
45945;DHT22;31655;48.972;10.686;2023-12-22T10:57:47;4.60;99.90
45945;DHT22;31655;48.972;10.686;2023-12-22T11:00:16;4.60;99.90
45945;DHT22;31655;48.972;10.686;2023-12-22T11:02:43;4.80;99.90
45945;DHT22;31655;48.972;10.686;2023-12-22T11:05:11;4.80;99.90
45945;DHT22;31655;48.972;10.686;2023-12-22T11:07:37;5.00;99.90
45945;DHT22;31655;48.972;10.686;2023-12-22T11:10:07;5.10;99.90
45945;DHT22;31655;48.972;10.686;2023-12-22T11:12:36;5.20;99.90
45945;DHT22;31655;48.972;10.686;2023-12-22T11:15:04;5.20;99.90
45945;DHT22;31655;48.972;10.686;2023-12-22T11:17:33;5.20;99.90
45945;DHT22;31655;48.972;10.686;2023-12-22T11:19:59;5.20;99.90
45945;DHT22;31655;48.972;10.686;2023-12-22T11:22:25;5.10;99.90
45945;DHT22;31655;48.972;10.686;2023-12-22T11:24:51;5.10;99.90
45945;DHT22;31655;48.972;10.686;2023-12-22T11:27:20;5.00;99.90
45945;DHT22;31655;48.972;10.686;2023-12-22T11:29:50;5.20;99.90
45945;DHT22;31655;48.972;10.686;2023-12-22T11:32:17;5.10;99.90
45945;DHT22;31655;48.972;10.686;2023-12-22T11:34:44;5.10;99.90
45945;DHT22;31655;48.972;10.686;2023-12-22T11:37:12;5.10;99.90
45945;DHT22;31655;48.972;10.686;2023-12-22T11:39:42;5.20;99.90
45945;DHT22;31655;48.972;10.686;2023-12-22T11:42:15;5.30;99.90
45945;DHT22;31655;48.972;10.686;2023-12-22T11:44:42;5.30;99.90
45945;DHT22;31655;48.972;10.686;2023-12-22T11:47:09;5.30;99.90
45945;DHT22;31655;48.972;10.686;2023-12-22T11:49:36;5.30;99.90
45945;DHT22;31655;48.972;10.686;2023-12-22T11:52:10;5.60;99.90
45945;DHT22;31655;48.972;10.686;2023-12-22T11:54:53;5.30;99.90
45945;DHT22;31655;48.972;10.686;2023-12-22T11:59:55;5.40;99.90
45945;DHT22;31655;48.972;10.686;2023-12-22T12:02:21;5.40;99.90
45945;DHT22;31655;48.972;10.686;2023-12-22T12:04:50;5.40;99.90
45945;DHT22;31655;48.972;10.686;2023-12-22T12:07:40;5.50;99.90
45945;DHT22;31655;48.972;10.686;2023-12-22T12:10:09;5.50;99.90
45945;DHT22;31655;48.972;10.686;2023-12-22T12:12:35;5.50;99.90
45945;DHT22;31655;48.972;10.686;2023-12-22T12:15:09;5.60;99.90
45945;DHT22;31655;48.972;10.686;2023-12-22T12:17:40;5.60;99.90
45945;DHT22;31655;48.972;10.686;2023-12-22T12:20:07;5.60;99.90
45945;DHT22;31655;48.972;10.686;2023-12-22T12:22:35;5.60;99.90
45945;DHT22;31655;48.972;10.686;2023-12-22T12:25:03;7.10;99.90
45945;DHT22;31655;48.972;10.686;2023-12-22T12:27:34;5.60;99.90
45945;DHT22;31655;48.972;10.686;2023-12-22T12:30:11;5.50;99.90
45945;DHT22;31655;48.972;10.686;2023-12-22T12:32:38;5.50;99.90
45945;DHT22;31655;48.972;10.686;2023-12-22T12:35:04;5.50;99.90
45945;DHT22;31655;48.972;10.686;2023-12-22T12:37:30;5.50;99.90
45945;DHT22;31655;48.972;10.686;2023-12-22T12:39:58;5.50;99.90
45945;DHT22;31655;48.972;10.686;2023-12-22T12:42:29;5.60;99.90
45945;DHT22;31655;48.972;10.686;2023-12-22T12:44:56;5.50;99.90
45945;DHT22;31655;48.972;10.686;2023-12-22T12:47:22;5.60;99.90
45945;DHT22;31655;48.972;10.686;2023-12-22T12:49:57;5.60;99.90
45945;DHT22;31655;48.972;10.686;2023-12-22T12:52:23;5.60;99.90
45945;DHT22;31655;48.972;10.686;2023-12-22T12:54:50;5.60;99.90
45945;DHT22;31655;48.972;10.686;2023-12-22T12:57:16;5.60;99.90
45945;DHT22;31655;48.972;10.686;2023-12-22T12:59:49;5.60;99.90
45945;DHT22;31655;48.972;10.686;2023-12-22T13:02:16;5.60;99.90
45945;DHT22;31655;48.972;10.686;2023-12-22T13:04:42;5.60;99.90
45945;DHT22;31655;48.972;10.686;2023-12-22T13:07:08;5.60;99.90
45945;DHT22;31655;48.972;10.686;2023-12-22T13:09:36;5.70;99.90
45945;DHT22;31655;48.972;10.686;2023-12-22T13:12:03;5.70;99.90
45945;DHT22;31655;48.972;10.686;2023-12-22T13:14:28;5.60;99.90
45945;DHT22;31655;48.972;10.686;2023-12-22T13:16:56;6.60;99.90
45945;DHT22;31655;48.972;10.686;2023-12-22T13:19:25;5.50;99.90
45945;DHT22;31655;48.972;10.686;2023-12-22T13:21:53;5.50;99.90
45945;DHT22;31655;48.972;10.686;2023-12-22T13:24:19;5.40;99.90
45945;DHT22;31655;48.972;10.686;2023-12-22T13:26:45;5.30;99.90
45945;DHT22;31655;48.972;10.686;2023-12-22T13:29:12;5.30;99.90
45945;DHT22;31655;48.972;10.686;2023-12-22T13:31:41;5.30;99.90
45945;DHT22;31655;48.972;10.686;2023-12-22T13:34:12;5.30;99.90
45945;DHT22;31655;48.972;10.686;2023-12-22T13:36:38;5.20;99.90
45945;DHT22;31655;48.972;10.686;2023-12-22T13:39:08;5.20;99.90
45945;DHT22;31655;48.972;10.686;2023-12-22T13:41:35;5.20;99.90
45945;DHT22;31655;48.972;10.686;2023-12-22T13:44:04;5.40;99.90
45945;DHT22;31655;48.972;10.686;2023-12-22T13:46:30;5.30;99.90
45945;DHT22;31655;48.972;10.686;2023-12-22T13:48:57;5.40;99.90
45945;DHT22;31655;48.972;10.686;2023-12-22T13:51:23;5.30;99.90
45945;DHT22;31655;48.972;10.686;2023-12-22T13:53:49;5.30;99.90
45945;DHT22;31655;48.972;10.686;2023-12-22T13:56:15;5.40;99.90
45945;DHT22;31655;48.972;10.686;2023-12-22T13:58:47;5.40;99.90
45945;DHT22;31655;48.972;10.686;2023-12-22T14:01:16;5.40;99.90
45945;DHT22;31655;48.972;10.686;2023-12-22T14:03:43;5.40;99.90
45945;DHT22;31655;48.972;10.686;2023-12-22T14:06:10;5.50;99.90
45945;DHT22;31655;48.972;10.686;2023-12-22T14:08:40;5.50;99.90
45945;DHT22;31655;48.972;10.686;2023-12-22T14:11:08;5.60;99.90
45945;DHT22;31655;48.972;10.686;2023-12-22T14:13:34;5.60;99.90
45945;DHT22;31655;48.972;10.686;2023-12-22T14:16:08;5.70;99.90
45945;DHT22;31655;48.972;10.686;2023-12-22T14:18:34;5.70;99.90
45945;DHT22;31655;48.972;10.686;2023-12-22T14:21:00;5.80;99.90
45945;DHT22;31655;48.972;10.686;2023-12-22T14:23:26;5.80;99.90
45945;DHT22;31655;48.972;10.686;2023-12-22T14:25:51;5.80;99.90
45945;DHT22;31655;48.972;10.686;2023-12-22T14:28:17;5.80;99.90
45945;DHT22;31655;48.972;10.686;2023-12-22T14:30:42;5.90;99.90
45945;DHT22;31655;48.972;10.686;2023-12-22T14:33:08;5.90;99.90
45945;DHT22;31655;48.972;10.686;2023-12-22T14:35:35;5.90;99.90
45945;DHT22;31655;48.972;10.686;2023-12-22T14:38:01;6.00;99.90
45945;DHT22;31655;48.972;10.686;2023-12-22T14:40:26;6.00;99.90
45945;DHT22;31655;48.972;10.686;2023-12-22T14:42:52;6.00;99.90
45945;DHT22;31655;48.972;10.686;2023-12-22T14:45:17;6.10;99.90
45945;DHT22;31655;48.972;10.686;2023-12-22T14:47:43;6.20;99.90
45945;DHT22;31655;48.972;10.686;2023-12-22T14:50:08;6.20;99.90
45945;DHT22;31655;48.972;10.686;2023-12-22T14:52:34;6.20;99.90
45945;DHT22;31655;48.972;10.686;2023-12-22T14:55:00;6.20;99.90
45945;DHT22;31655;48.972;10.686;2023-12-22T14:57:26;6.20;99.90
45945;DHT22;31655;48.972;10.686;2023-12-22T14:59:54;6.20;99.90
45945;DHT22;31655;48.972;10.686;2023-12-22T15:02:19;6.20;99.90
45945;DHT22;31655;48.972;10.686;2023-12-22T15:04:45;6.30;99.90
45945;DHT22;31655;48.972;10.686;2023-12-22T15:07:17;6.30;99.90
45945;DHT22;31655;48.972;10.686;2023-12-22T15:09:43;6.30;99.90
45945;DHT22;31655;48.972;10.686;2023-12-22T15:12:11;6.80;99.90
45945;DHT22;31655;48.972;10.686;2023-12-22T15:14:36;6.40;99.90
45945;DHT22;31655;48.972;10.686;2023-12-22T15:17:02;6.40;99.90
45945;DHT22;31655;48.972;10.686;2023-12-22T15:19:27;6.50;99.90
45945;DHT22;31655;48.972;10.686;2023-12-22T15:21:53;6.50;99.90
45945;DHT22;31655;48.972;10.686;2023-12-22T15:24:19;6.50;99.90
45945;DHT22;31655;48.972;10.686;2023-12-22T15:26:44;6.50;99.90
45945;DHT22;31655;48.972;10.686;2023-12-22T15:29:10;6.50;99.90
45945;DHT22;31655;48.972;10.686;2023-12-22T15:31:35;6.50;99.90
45945;DHT22;31655;48.972;10.686;2023-12-22T15:34:02;6.50;99.90
45945;DHT22;31655;48.972;10.686;2023-12-22T15:36:28;6.50;99.90
45945;DHT22;31655;48.972;10.686;2023-12-22T15:38:54;6.50;99.90
45945;DHT22;31655;48.972;10.686;2023-12-22T15:41:20;6.50;99.90
45945;DHT22;31655;48.972;10.686;2023-12-22T15:43:45;6.50;99.90
45945;DHT22;31655;48.972;10.686;2023-12-22T15:46:11;6.50;99.90
45945;DHT22;31655;48.972;10.686;2023-12-22T15:48:37;6.50;99.90
45945;DHT22;31655;48.972;10.686;2023-12-22T15:51:11;6.50;99.90
45945;DHT22;31655;48.972;10.686;2023-12-22T15:53:38;6.50;99.90
45945;DHT22;31655;48.972;10.686;2023-12-22T15:56:08;6.50;99.90
45945;DHT22;31655;48.972;10.686;2023-12-22T15:58:39;6.50;99.90
45945;DHT22;31655;48.972;10.686;2023-12-22T16:01:11;6.50;99.90
45945;DHT22;31655;48.972;10.686;2023-12-22T16:03:38;6.50;99.90
45945;DHT22;31655;48.972;10.686;2023-12-22T16:06:07;6.50;99.90